Sunflower Hakata — JL6711 — position and weather

sailwx.info

Track history (hours):
 
Tides and Currents Weather Stations Pressure Air Temp Water Temp Dewpoint Dewpoint Depression Visibility Wind Speed Wind Dir Waves Ship Positions

Sunflower Hakata

Last reported at 2016-Feb-14 04:29 UTC. Time now 2016-Feb-14 12:45 UTC.
Position N 33°55' E 134°59'.

Length 167 m; draft 6.5 m.

Type: Cargo ship. MMSI: 431501764.

Date/timePositionNaut miles runAvg speedWind from/ knotsBaromVisibWave heightAir tempDewpointWater temp
2016-Feb-14 04:29N 33°55' E 134°59'2021.6
2016-Feb-14 03:33N 34°15' E 134°59'2120.6
2016-Feb-14 02:33N 34°35' E 135°03'1818.2
2016-Feb-14 01:33N 34°32' E 134°41'19413.5
2016-Feb-13 11:09N 34°02' E 130°49'1620.8
2016-Feb-13 10:24N 33°59' E 130°31'1821.3
2016-Feb-13 09:33N 33°45' E 130°17'10 9.9
2016-Feb-13 08:33N 33°38' E 130°24'0 0.0
2016-Feb-13 07:34N 33°38' E 130°24'0 0.0
2016-Feb-13 06:33N 33°38' E 130°24'0 0.0
2016-Feb-13 05:32N 33°38' E 130°24'0 0.0
2016-Feb-13 04:32N 33°38' E 130°24'0 0.0
2016-Feb-13 03:32N 33°38' E 130°24'0 0.0
2016-Feb-13 02:32N 33°38' E 130°24'0 0.0
2016-Feb-13 01:32N 33°38' E 130°24'0 0.0
2016-Feb-13 00:32N 33°38' E 130°24'0 0.0
2016-Feb-12 23:32N 33°38' E 130°24'0 0.0
2016-Feb-12 22:32N 33°38' E 130°24'0 0.0
2016-Feb-12 21:32N 33°38' E 130°24'0 0.0
2016-Feb-12 20:30N 33°38' E 130°24'9 9.6
2016-Feb-12 19:33N 33°44' E 130°16'45815.5
2016-Feb-11 14:05N 34°55' E 139°24'1019.9
2016-Feb-11 13:33N 35°01' E 139°34'1717.0
2016-Feb-11 12:33N 35°15' E 139°46'1413.8
2016-Feb-11 11:33N 35°28' E 139°49'9 8.8
2016-Feb-11 10:33N 35°37' E 139°48'0 0.0
2016-Feb-11 09:33N 35°37' E 139°48'0 0.0
2016-Feb-11 08:33N 35°37' E 139°48'0 0.0
2016-Feb-11 07:33N 35°37' E 139°48'0 0.0
2016-Feb-11 06:33N 35°37' E 139°48'0 0.0
2016-Feb-11 05:33N 35°37' E 139°48'0 0.0
2016-Feb-11 04:33N 35°37' E 139°48'0 0.0
2016-Feb-11 03:33N 35°37' E 139°48'0 0.0
2016-Feb-11 02:33N 35°37' E 139°48'0 0.0
2016-Feb-11 01:33N 35°37' E 139°48'0 0.0
2016-Feb-11 00:33N 35°37' E 139°48'0 0.0
2016-Feb-10 23:30N 35°37' E 139°48'0 0.0
2016-Feb-10 22:33N 35°37' E 139°48'0 0.0
2016-Feb-10 21:33N 35°37' E 139°48'0 0.0
2016-Feb-10 20:33N 35°37' E 139°48'8 8.1
2016-Feb-10 19:33N 35°30' E 139°52'1413.7
2016-Feb-10 18:33N 35°17' E 139°45'1515.1
2016-Feb-10 17:34N 35°03' E 139°41'24218.6
2016-Feb-10 04:33N 33°58' E 134°58'2322.7
2016-Feb-10 03:33N 34°21' E 134°59'1414.2
2016-Feb-10 02:32N 34°35' E 134°55'20613.5
2016-Feb-09 11:14N 34°02' E 130°49'2221.8
2016-Feb-09 10:13N 33°57' E 130°23'1521.7
2016-Feb-09 09:33N 33°43' E 130°16'9 9.0
2016-Feb-09 08:33N 33°38' E 130°24'0 0.0
2016-Feb-09 07:32N 33°38' E 130°24'0 0.0
2016-Feb-09 06:32N 33°38' E 130°24'0 0.0
2016-Feb-09 05:33N 33°38' E 130°24'0 0.0
2016-Feb-09 04:34N 33°38' E 130°24'0 0.0
2016-Feb-09 03:33N 33°38' E 130°24'0 0.0
2016-Feb-09 02:33N 33°38' E 130°24'0 0.0
2016-Feb-09 01:33N 33°38' E 130°24'0 0.0
2016-Feb-09 00:33N 33°38' E 130°24'0 0.0
2016-Feb-08 23:30N 33°38' E 130°24'0 0.1
2016-Feb-08 22:33N 33°37' E 130°24'0 0.0
2016-Feb-08 21:33N 33°37' E 130°24'0 0.0
2016-Feb-08 20:33N 33°37' E 130°24'0 0.0
2016-Feb-08 19:33N 33°37' E 130°24'0 0.0
2016-Feb-08 18:33N 33°37' E 130°24'0 0.0
2016-Feb-08 17:33N 33°37' E 130°24'0 0.0
2016-Feb-08 16:33N 33°37' E 130°24'0 0.0
2016-Feb-08 15:33N 33°37' E 130°24'0 0.0
2016-Feb-08 14:33N 33°37' E 130°24'0 0.0
2016-Feb-08 13:33N 33°37' E 130°24'0 0.0
2016-Feb-08 12:33N 33°37' E 130°24'0 0.0
2016-Feb-08 11:33N 33°37' E 130°24'0 0.0
2016-Feb-08 10:33N 33°37' E 130°24'0 0.0
2016-Feb-08 09:33N 33°37' E 130°24'0 0.0
2016-Feb-08 08:33N 33°37' E 130°24'0 0.0
2016-Feb-08 06:15N 33°37' E 130°24'0 0.0
2016-Feb-08 05:33N 33°37' E 130°24'0 0.0
2016-Feb-08 04:31N 33°37' E 130°24'0 0.0
2016-Feb-08 03:33N 33°37' E 130°24'0 0.0
2016-Feb-08 02:33N 33°37' E 130°24'0 0.0
2016-Feb-08 01:33N 33°37' E 130°24'0 0.0
2016-Feb-08 00:33N 33°37' E 130°24'0 0.0
2016-Feb-07 23:33N 33°37' E 130°24'0 0.0
2016-Feb-07 22:33N 33°37' E 130°24'0 0.0
2016-Feb-07 21:33N 33°37' E 130°24'0 0.0
2016-Feb-07 20:33N 33°37' E 130°24'9 8.8
2016-Feb-07 19:33N 33°43' E 130°16'2018.9
2016-Feb-07 18:31N 33°59' E 130°30'40015.3
2016-Feb-06 16:25N 34°30' E 138°32'5418.6
2016-Feb-06 13:32N 34°58' E 139°28'1919.4
2016-Feb-06 12:33N 35°11' E 139°45'1414.2
2016-Feb-06 11:34N 35°25' E 139°43'1312.7
2016-Feb-06 10:33N 35°37' E 139°48'0 0.1
2016-Feb-06 09:30N 35°37' E 139°48'0 0.0
2016-Feb-06 08:33N 35°37' E 139°48'0 0.0
2016-Feb-06 07:30N 35°37' E 139°48'0 0.0
2016-Feb-06 06:33N 35°37' E 139°48'0 0.0
2016-Feb-06 05:33N 35°37' E 139°48'0 0.0
2016-Feb-06 04:27N 35°37' E 139°48'0 0.0
2016-Feb-06 03:33N 35°37' E 139°48'0 0.0
2016-Feb-06 02:33N 35°37' E 139°48'0 0.0
2016-Feb-06 01:33N 35°37' E 139°48'0 0.0
2016-Feb-06 00:33N 35°37' E 139°48'0 0.0
2016-Feb-05 23:33N 35°37' E 139°48'0 0.0
2016-Feb-05 22:30N 35°37' E 139°48'0 0.0
2016-Feb-05 21:30N 35°37' E 139°48'0 0.0
2016-Feb-05 20:33N 35°37' E 139°48'7 7.4
2016-Feb-05 19:33N 35°31' E 139°52'1414.3
2016-Feb-05 18:33N 35°18' E 139°45'1515.2
2016-Feb-05 17:33N 35°03' E 139°42'24418.7
2016-Feb-05 04:32N 33°55' E 134°59'2222.7
2016-Feb-05 03:33N 34°17' E 134°58'2019.9
2016-Feb-05 02:33N 34°37' E 135°02'24014.1
2016-Feb-04 09:33N 33°47' E 130°18'1111.0
2016-Feb-04 08:32N 33°38' E 130°24'0 0.0
2016-Feb-04 07:33N 33°38' E 130°24'0 0.0
2016-Feb-04 06:32N 33°38' E 130°24'0 0.0
2016-Feb-04 05:31N 33°38' E 130°24'  
Track history (hours):
 
Tides and Currents Weather Stations Pressure Air Temp Water Temp Dewpoint Dewpoint Depression Visibility Wind Speed Wind Dir Waves Ship Positions

Sunflower Hakata

Last reported at 2016-Feb-14 04:29 UTC. Time now 2016-Feb-14 12:45 UTC.
Position N 33°55' E 134°59'.

Length 167 m; draft 6.5 m.

Type: Cargo ship. MMSI: 431501764.

Date/timePositionNaut miles runAvg speedWind from/ knotsBaromVisibWave heightAir tempDewpointWater temp
2016-Feb-14 04:29N 33°55' E 134°59'2021.6
2016-Feb-14 03:33N 34°15' E 134°59'2120.6
2016-Feb-14 02:33N 34°35' E 135°03'1818.2
2016-Feb-14 01:33N 34°32' E 134°41'19413.5
2016-Feb-13 11:09N 34°02' E 130°49'1620.8
2016-Feb-13 10:24N 33°59' E 130°31'1821.3
2016-Feb-13 09:33N 33°45' E 130°17'10 9.9
2016-Feb-13 08:33N 33°38' E 130°24'0 0.0
2016-Feb-13 07:34N 33°38' E 130°24'0 0.0
2016-Feb-13 06:33N 33°38' E 130°24'0 0.0
2016-Feb-13 05:32N 33°38' E 130°24'0 0.0
2016-Feb-13 04:32N 33°38' E 130°24'0 0.0
2016-Feb-13 03:32N 33°38' E 130°24'0 0.0
2016-Feb-13 02:32N 33°38' E 130°24'0 0.0
2016-Feb-13 01:32N 33°38' E 130°24'0 0.0
2016-Feb-13 00:32N 33°38' E 130°24'0 0.0
2016-Feb-12 23:32N 33°38' E 130°24'0 0.0
2016-Feb-12 22:32N 33°38' E 130°24'0 0.0
2016-Feb-12 21:32N 33°38' E 130°24'0 0.0
2016-Feb-12 20:30N 33°38' E 130°24'9 9.6
2016-Feb-12 19:33N 33°44' E 130°16'45815.5
2016-Feb-11 14:05N 34°55' E 139°24'1019.9
2016-Feb-11 13:33N 35°01' E 139°34'1717.0
2016-Feb-11 12:33N 35°15' E 139°46'1413.8
2016-Feb-11 11:33N 35°28' E 139°49'9 8.8
2016-Feb-11 10:33N 35°37' E 139°48'0 0.0
2016-Feb-11 09:33N 35°37' E 139°48'0 0.0
2016-Feb-11 08:33N 35°37' E 139°48'0 0.0
2016-Feb-11 07:33N 35°37' E 139°48'0 0.0
2016-Feb-11 06:33N 35°37' E 139°48'0 0.0
2016-Feb-11 05:33N 35°37' E 139°48'0 0.0
2016-Feb-11 04:33N 35°37' E 139°48'0 0.0
2016-Feb-11 03:33N 35°37' E 139°48'0 0.0
2016-Feb-11 02:33N 35°37' E 139°48'0 0.0
2016-Feb-11 01:33N 35°37' E 139°48'0 0.0
2016-Feb-11 00:33N 35°37' E 139°48'0 0.0
2016-Feb-10 23:30N 35°37' E 139°48'0 0.0
2016-Feb-10 22:33N 35°37' E 139°48'0 0.0
2016-Feb-10 21:33N 35°37' E 139°48'0 0.0
2016-Feb-10 20:33N 35°37' E 139°48'8 8.1
2016-Feb-10 19:33N 35°30' E 139°52'1413.7
2016-Feb-10 18:33N 35°17' E 139°45'1515.1
2016-Feb-10 17:34N 35°03' E 139°41'24218.6
2016-Feb-10 04:33N 33°58' E 134°58'2322.7
2016-Feb-10 03:33N 34°21' E 134°59'1414.2
2016-Feb-10 02:32N 34°35' E 134°55'20613.5
2016-Feb-09 11:14N 34°02' E 130°49'2221.8
2016-Feb-09 10:13N 33°57' E 130°23'1521.7
2016-Feb-09 09:33N 33°43' E 130°16'9 9.0
2016-Feb-09 08:33N 33°38' E 130°24'0 0.0
2016-Feb-09 07:32N 33°38' E 130°24'0 0.0
2016-Feb-09 06:32N 33°38' E 130°24'0 0.0
2016-Feb-09 05:33N 33°38' E 130°24'0 0.0
2016-Feb-09 04:34N 33°38' E 130°24'0 0.0
2016-Feb-09 03:33N 33°38' E 130°24'0 0.0
2016-Feb-09 02:33N 33°38' E 130°24'0 0.0
2016-Feb-09 01:33N 33°38' E 130°24'0 0.0
2016-Feb-09 00:33N 33°38' E 130°24'0 0.0
2016-Feb-08 23:30N 33°38' E 130°24'0 0.1
2016-Feb-08 22:33N 33°37' E 130°24'0 0.0
2016-Feb-08 21:33N 33°37' E 130°24'0 0.0
2016-Feb-08 20:33N 33°37' E 130°24'0 0.0
2016-Feb-08 19:33N 33°37' E 130°24'0 0.0
2016-Feb-08 18:33N 33°37' E 130°24'0 0.0
2016-Feb-08 17:33N 33°37' E 130°24'0 0.0
2016-Feb-08 16:33N 33°37' E 130°24'0 0.0
2016-Feb-08 15:33N 33°37' E 130°24'0 0.0
2016-Feb-08 14:33N 33°37' E 130°24'0 0.0
2016-Feb-08 13:33N 33°37' E 130°24'0 0.0
2016-Feb-08 12:33N 33°37' E 130°24'0 0.0
2016-Feb-08 11:33N 33°37' E 130°24'0 0.0
2016-Feb-08 10:33N 33°37' E 130°24'0 0.0
2016-Feb-08 09:33N 33°37' E 130°24'0 0.0
2016-Feb-08 08:33N 33°37' E 130°24'0 0.0
2016-Feb-08 06:15N 33°37' E 130°24'0 0.0
2016-Feb-08 05:33N 33°37' E 130°24'0 0.0
2016-Feb-08 04:31N 33°37' E 130°24'0 0.0
2016-Feb-08 03:33N 33°37' E 130°24'0 0.0
2016-Feb-08 02:33N 33°37' E 130°24'0 0.0
2016-Feb-08 01:33N 33°37' E 130°24'0 0.0
2016-Feb-08 00:33N 33°37' E 130°24'0 0.0
2016-Feb-07 23:33N 33°37' E 130°24'0 0.0
2016-Feb-07 22:33N 33°37' E 130°24'0 0.0
2016-Feb-07 21:33N 33°37' E 130°24'0 0.0
2016-Feb-07 20:33N 33°37' E 130°24'9 8.8
2016-Feb-07 19:33N 33°43' E 130°16'2018.9
2016-Feb-07 18:31N 33°59' E 130°30'40015.3
2016-Feb-06 16:25N 34°30' E 138°32'5418.6
2016-Feb-06 13:32N 34°58' E 139°28'1919.4
2016-Feb-06 12:33N 35°11' E 139°45'1414.2
2016-Feb-06 11:34N 35°25' E 139°43'1312.7
2016-Feb-06 10:33N 35°37' E 139°48'0 0.1
2016-Feb-06 09:30N 35°37' E 139°48'0 0.0
2016-Feb-06 08:33N 35°37' E 139°48'0 0.0
2016-Feb-06 07:30N 35°37' E 139°48'0 0.0
2016-Feb-06 06:33N 35°37' E 139°48'0 0.0
2016-Feb-06 05:33N 35°37' E 139°48'0 0.0
2016-Feb-06 04:27N 35°37' E 139°48'0 0.0
2016-Feb-06 03:33N 35°37' E 139°48'0 0.0
2016-Feb-06 02:33N 35°37' E 139°48'0 0.0
2016-Feb-06 01:33N 35°37' E 139°48'0 0.0
2016-Feb-06 00:33N 35°37' E 139°48'0 0.0
2016-Feb-05 23:33N 35°37' E 139°48'0 0.0
2016-Feb-05 22:30N 35°37' E 139°48'0 0.0
2016-Feb-05 21:30N 35°37' E 139°48'0 0.0
2016-Feb-05 20:33N 35°37' E 139°48'7 7.4
2016-Feb-05 19:33N 35°31' E 139°52'1414.3
2016-Feb-05 18:33N 35°18' E 139°45'1515.2
2016-Feb-05 17:33N 35°03' E 139°42'24418.7
2016-Feb-05 04:32N 33°55' E 134°59'2222.7
2016-Feb-05 03:33N 34°17' E 134°58'2019.9
2016-Feb-05 02:33N 34°37' E 135°02'24014.1
2016-Feb-04 09:33N 33°47' E 130°18'1111.0
2016-Feb-04 08:32N 33°38' E 130°24'0 0.0
2016-Feb-04 07:33N 33°38' E 130°24'0 0.0
2016-Feb-04 06:32N 33°38' E 130°24'0 0.0
2016-Feb-04 05:31N 33°38' E 130°24'  

Dump ship's entire track history